Time;durP1;ratioP1;P1;durP2;ratioP2;P2;SDS_P1;SDS_P2;PMS_P1;PMS_P2;Temp;Humidity;BMP_temperature;BMP_pressure;BME280_temperature;BME280_humidity;BME280_pressure;Samples;Min_cycle;Max_cycle;Signal;HPM_P1;HPM_P2
2023/10/25 00:02:30;;;;;;;11.93;8.87;;;10.30;99.90;;;;;;5043709;28;20442;-75
2023/10/25 00:05:16;;;;;;;40.00;8.10;;;10.40;99.90;;;;;;5046931;28;20412;-75
2023/10/25 00:08:04;;;;;;;7.90;6.70;;;10.40;99.90;;;;;;5042644;28;20479;-75
2023/10/25 00:10:49;;;;;;;16.93;6.90;;;10.40;99.90;;;;;;5045004;28;20485;-75
2023/10/25 00:13:36;;;;;;;17.13;7.20;;;10.50;99.90;;;;;;5043381;28;20443;-75
2023/10/25 00:16:22;;;;;;;20.03;6.73;;;10.40;99.90;;;;;;5054856;28;20448;-75
2023/10/25 00:19:07;;;;;;;13.47;8.00;;;10.40;99.90;;;;;;5040209;28;21021;-75
2023/10/25 00:21:53;;;;;;;12.20;7.50;;;10.40;99.90;;;;;;5058554;28;20550;-75
2023/10/25 00:24:40;;;;;;;22.13;7.47;;;10.30;99.90;;;;;;5055955;28;20473;-75
2023/10/25 00:27:25;;;;;;;13.53;7.00;;;10.30;99.90;;;;;;5048815;28;20520;-75
2023/10/25 00:30:12;;;;;;;14.23;7.87;;;10.20;99.90;;;;;;5060331;28;20446;-75
2023/10/25 00:32:57;;;;;;;29.63;7.07;;;10.10;99.90;;;;;;5039929;28;20929;-75
2023/10/25 00:35:43;;;;;;;12.10;8.13;;;10.00;99.90;;;;;;5044356;28;20540;-75
2023/10/25 00:38:29;;;;;;;18.50;7.70;;;9.90;99.90;;;;;;5043055;28;20607;-75
2023/10/25 00:41:16;;;;;;;15.23;8.13;;;9.90;99.90;;;;;;5049761;28;20957;-75
2023/10/25 00:44:02;;;;;;;11.80;7.67;;;9.90;99.90;;;;;;5058845;28;20478;-75
2023/10/25 00:46:49;;;;;;;7.57;6.73;;;10.00;99.90;;;;;;5047722;28;20443;-75
2023/10/25 00:49:35;;;;;;;7.97;7.03;;;10.10;99.90;;;;;;5047512;28;20973;-75
2023/10/25 00:52:21;;;;;;;8.77;7.20;;;10.10;99.90;;;;;;5043373;28;20474;-75
2023/10/25 00:55:08;;;;;;;30.03;7.60;;;10.20;99.90;;;;;;5048616;28;20957;-75
2023/10/25 00:57:55;;;;;;;7.07;6.37;;;10.20;99.90;;;;;;5056035;28;20493;-75
2023/10/25 01:00:41;;;;;;;11.30;7.63;;;10.20;99.90;;;;;;5048178;28;20451;-75
2023/10/25 01:03:26;;;;;;;19.67;8.97;;;10.10;99.90;;;;;;5049660;28;20449;-75
2023/10/25 01:06:13;;;;;;;13.23;8.30;;;10.10;99.90;;;;;;5049029;28;20481;-75
2023/10/25 01:08:59;;;;;;;13.20;8.90;;;10.10;99.90;;;;;;5048294;28;20496;-75
2023/10/25 01:11:45;;;;;;;16.40;9.20;;;10.10;99.90;;;;;;5045336;28;21281;-75
2023/10/25 01:14:32;;;;;;;23.20;8.90;;;10.20;99.90;;;;;;5049274;28;20438;-75
2023/10/25 01:17:18;;;;;;;10.67;8.57;;;10.10;99.90;;;;;;5046133;28;20545;-75
2023/10/25 01:20:05;;;;;;;9.37;8.37;;;10.20;99.90;;;;;;5039129;28;20528;-74
2023/10/25 01:22:52;;;;;;;9.57;7.50;;;10.20;99.90;;;;;;5034553;28;20443;-75
2023/10/25 01:25:37;;;;;;;16.97;8.53;;;10.20;99.90;;;;;;5034128;28;20483;-75
2023/10/25 01:28:24;;;;;;;10.60;7.37;;;10.20;99.90;;;;;;5041156;28;20534;-75
2023/10/25 01:31:09;;;;;;;8.33;7.30;;;10.20;99.90;;;;;;5036416;28;20475;-75
2023/10/25 01:33:55;;;;;;;10.67;7.60;;;10.20;99.90;;;;;;5038205;28;20439;-75
2023/10/25 01:36:41;;;;;;;9.97;7.50;;;10.20;99.90;;;;;;5042864;28;20540;-75
2023/10/25 01:39:28;;;;;;;10.10;7.00;;;10.30;99.90;;;;;;5039661;28;20482;-75
2023/10/25 01:42:14;;;;;;;21.63;6.80;;;10.40;99.90;;;;;;5040990;28;20816;-75
2023/10/25 01:45:01;;;;;;;9.47;7.43;;;10.30;99.90;;;;;;5045948;28;20550;-75
2023/10/25 01:47:46;;;;;;;26.47;7.77;;;10.20;99.90;;;;;;5052485;28;20587;-75
2023/10/25 01:50:31;;;;;;;8.63;7.13;;;10.20;99.90;;;;;;5045902;28;20454;-75
2023/10/25 01:53:17;;;;;;;11.53;6.80;;;10.00;99.90;;;;;;5038902;28;21009;-75
2023/10/25 01:56:05;;;;;;;16.73;7.43;;;10.10;99.90;;;;;;5036644;28;20540;-75
2023/10/25 01:58:50;;;;;;;9.27;8.27;;;10.10;99.90;;;;;;5052707;28;20445;-75
2023/10/25 02:01:36;;;;;;;10.10;8.20;;;10.10;99.90;;;;;;5045225;28;20532;-75
2023/10/25 02:04:22;;;;;;;8.53;6.63;;;10.10;99.90;;;;;;5054726;28;20882;-75
2023/10/25 02:07:07;;;;;;;7.70;5.87;;;10.10;99.90;;;;;;5053623;28;20427;-75
2023/10/25 02:09:53;;;;;;;7.70;6.63;;;10.00;99.90;;;;;;5044314;28;20570;-75
2023/10/25 02:12:40;;;;;;;7.27;6.13;;;10.00;99.90;;;;;;5046380;28;20425;-75
2023/10/25 02:15:25;;;;;;;7.10;6.40;;;10.10;99.90;;;;;;5048034;28;20955;-75
2023/10/25 02:18:11;;;;;;;9.10;6.67;;;10.20;99.90;;;;;;5035783;28;20503;-75
2023/10/25 02:20:57;;;;;;;12.73;7.17;;;10.20;99.90;;;;;;5045645;28;20525;-75
2023/10/25 02:23:43;;;;;;;8.20;6.50;;;10.20;99.90;;;;;;5051356;28;20425;-75
2023/10/25 02:26:28;;;;;;;10.60;6.23;;;10.20;99.90;;;;;;5044859;28;20581;-75
2023/10/25 02:29:15;;;;;;;10.43;6.40;;;10.20;99.90;;;;;;5053528;28;20469;-75
2023/10/25 02:32:01;;;;;;;7.43;6.73;;;10.20;99.90;;;;;;5041964;28;21005;-76
2023/10/25 02:34:47;;;;;;;10.20;7.10;;;10.20;99.90;;;;;;5056894;28;20488;-75
2023/10/25 02:37:32;;;;;;;11.13;6.67;;;10.10;99.90;;;;;;5037569;28;20462;-75
2023/10/25 02:40:18;;;;;;;8.10;6.93;;;10.10;99.90;;;;;;5051208;28;20459;-75
2023/10/25 02:43:04;;;;;;;12.83;7.07;;;10.10;99.90;;;;;;5038181;28;20538;-75
2023/10/25 02:45:50;;;;;;;7.77;6.97;;;10.20;99.90;;;;;;5051475;28;20475;-75
2023/10/25 02:48:37;;;;;;;17.33;7.27;;;10.20;99.90;;;;;;5055454;28;21009;-75
2023/10/25 02:51:23;;;;;;;8.30;7.20;;;10.30;99.90;;;;;;5055703;28;20448;-75
2023/10/25 02:54:08;;;;;;;8.30;7.37;;;10.30;99.90;;;;;;5049792;28;20486;-75
2023/10/25 02:56:55;;;;;;;7.87;7.00;;;10.20;99.90;;;;;;5041118;28;20459;-75
2023/10/25 02:59:40;;;;;;;8.67;7.47;;;10.20;99.90;;;;;;5055232;28;20465;-75
2023/10/25 03:02:27;;;;;;;8.07;7.20;;;10.30;99.90;;;;;;5052305;28;20457;-75
2023/10/25 03:05:13;;;;;;;10.97;7.80;;;10.30;99.90;;;;;;5053378;28;20495;-75
2023/10/25 03:07:58;;;;;;;8.50;7.53;;;10.30;99.90;;;;;;5052616;28;20590;-75
2023/10/25 03:10:44;;;;;;;10.97;8.80;;;10.20;99.90;;;;;;5047953;28;20578;-75
2023/10/25 03:13:30;;;;;;;10.57;7.13;;;10.20;99.90;;;;;;5049884;28;20999;-75
2023/10/25 03:16:16;;;;;;;13.37;7.63;;;10.10;99.90;;;;;;5058697;28;20411;-75
2023/10/25 03:19:03;;;;;;;20.27;8.17;;;10.10;99.90;;;;;;5048686;28;20587;-75
2023/10/25 03:21:48;;;;;;;20.20;8.50;;;10.10;99.90;;;;;;5039236;28;20522;-75
2023/10/25 03:24:34;;;;;;;13.60;8.57;;;10.10;99.90;;;;;;5047495;28;20477;-75
2023/10/25 03:27:20;;;;;;;26.43;9.07;;;10.10;99.90;;;;;;5047094;28;20531;-75
2023/10/25 03:30:08;;;;;;;10.77;9.27;;;10.00;99.90;;;;;;5046519;28;20436;-75
2023/10/25 03:32:53;;;;;;;29.23;8.93;;;10.00;99.90;;;;;;5045830;28;20601;-75
2023/10/25 03:35:40;;;;;;;18.53;9.70;;;10.00;99.90;;;;;;5050107;28;20438;-75
2023/10/25 03:38:26;;;;;;;9.33;8.20;;;10.00;99.90;;;;;;5046645;28;20505;-75
2023/10/25 03:41:12;;;;;;;12.50;8.93;;;9.90;99.90;;;;;;5052370;28;20522;-75
2023/10/25 03:43:57;;;;;;;150.23;10.33;;;9.90;99.90;;;;;;5044235;28;20510;-75
2023/10/25 03:46:43;;;;;;;18.43;8.97;;;9.80;99.90;;;;;;5063737;28;20811;-75
2023/10/25 03:49:29;;;;;;;10.57;9.30;;;9.90;99.90;;;;;;5044632;28;20444;-75
2023/10/25 03:52:16;;;;;;;90.70;10.23;;;10.00;99.90;;;;;;5052078;28;20446;-75
2023/10/25 03:55:02;;;;;;;59.53;8.63;;;10.00;99.90;;;;;;5049150;28;21142;-75
2023/10/25 03:57:48;;;;;;;24.40;7.73;;;10.00;99.90;;;;;;5054325;28;20531;-75
2023/10/25 04:00:33;;;;;;;9.80;7.13;;;9.90;99.90;;;;;;5052066;28;20445;-75
2023/10/25 04:03:19;;;;;;;17.20;7.43;;;10.00;99.90;;;;;;5050299;28;20872;-75
2023/10/25 04:06:05;;;;;;;12.37;8.60;;;10.00;99.90;;;;;;5038386;28;20506;-75
2023/10/25 04:08:52;;;;;;;9.07;7.90;;;10.00;99.90;;;;;;5053078;28;20469;-75
2023/10/25 04:11:38;;;;;;;38.73;6.83;;;9.90;99.90;;;;;;5056184;28;20423;-75
2023/10/25 04:14:23;;;;;;;94.00;6.00;;;9.90;99.90;;;;;;5055215;28;20450;-75
2023/10/25 04:17:09;;;;;;;122.20;9.23;;;9.80;99.90;;;;;;5061764;28;20445;-75
2023/10/25 04:19:55;;;;;;;86.93;6.20;;;9.60;99.90;;;;;;5058951;28;20472;-75
2023/10/25 04:22:41;;;;;;;95.37;7.20;;;9.50;99.90;;;;;;5046522;28;20455;-75
2023/10/25 04:25:28;;;;;;;16.87;6.10;;;9.40;99.90;;;;;;5057208;28;20475;-75
2023/10/25 04:28:14;;;;;;;14.40;6.20;;;9.30;99.90;;;;;;5055633;28;20612;-75
2023/10/25 04:30:59;;;;;;;27.10;6.70;;;9.30;99.90;;;;;;5046712;28;20455;-75
2023/10/25 04:33:45;;;;;;;43.30;5.43;;;9.30;99.90;;;;;;5046651;28;20429;-75
2023/10/25 04:36:31;;;;;;;67.37;5.40;;;9.30;99.90;;;;;;5049082;28;20462;-74
2023/10/25 04:39:17;;;;;;;6.90;5.03;;;9.20;99.90;;;;;;5049379;28;20982;-75
2023/10/25 04:42:04;;;;;;;69.30;5.23;;;9.20;99.90;;;;;;5053436;28;20887;-75
2023/10/25 04:44:50;;;;;;;28.47;4.27;;;9.10;99.90;;;;;;5051785;28;20476;-75
2023/10/25 04:47:36;;;;;;;6.07;5.57;;;9.00;99.90;;;;;;5066106;28;20422;-75
2023/10/25 04:50:22;;;;;;;8.80;4.00;;;9.10;99.90;;;;;;5056954;28;20452;-75
2023/10/25 04:53:07;;;;;;;22.13;4.17;;;9.20;99.90;;;;;;5048158;28;20572;-75
2023/10/25 04:55:53;;;;;;;32.30;4.10;;;9.20;99.90;;;;;;5065631;28;20439;-75
2023/10/25 04:58:40;;;;;;;15.40;4.03;;;9.00;99.90;;;;;;5046132;28;20499;-75
2023/10/25 05:01:26;;;;;;;4.40;3.87;;;8.90;99.90;;;;;;5045312;28;20459;-75
2023/10/25 05:04:12;;;;;;;12.30;4.37;;;8.90;99.90;;;;;;5055768;28;20964;-75
2023/10/25 05:06:58;;;;;;;31.90;4.70;;;8.90;99.90;;;;;;5056057;28;20942;-75
2023/10/25 05:09:44;;;;;;;4.80;3.60;;;8.90;99.90;;;;;;5051146;28;20622;-75
2023/10/25 05:12:37;;;;;;;6.50;4.07;;;8.90;99.90;;;;;;5058811;28;20456;-75
2023/10/25 05:15:25;;;;;;;11.53;4.10;;;8.90;99.90;;;;;;5048892;28;20805;-75
2023/10/25 05:18:11;;;;;;;7.77;4.50;;;8.80;99.90;;;;;;5049407;28;20502;-75
2023/10/25 05:20:59;;;;;;;5.27;4.77;;;8.80;99.90;;;;;;5044035;28;20449;-75
2023/10/25 05:23:46;;;;;;;37.63;5.53;;;8.80;99.90;;;;;;5054836;28;20519;-75
2023/10/25 05:26:32;;;;;;;6.80;4.17;;;8.80;99.90;;;;;;5053718;28;20485;-75
2023/10/25 05:29:18;;;;;;;8.00;4.30;;;8.80;99.90;;;;;;5041716;28;20472;-75
2023/10/25 05:32:09;;;;;;;5.80;4.50;;;8.90;99.90;;;;;;5043840;28;20526;-75
2023/10/25 05:34:54;;;;;;;5.87;4.60;;;8.80;99.90;;;;;;5059119;28;20591;-75
2023/10/25 05:37:40;;;;;;;12.40;3.60;;;8.70;99.90;;;;;;5057874;28;20923;-75
2023/10/25 05:40:27;;;;;;;5.90;3.90;;;8.60;99.90;;;;;;5052593;28;20448;-75
2023/10/25 05:43:15;;;;;;;4.30;3.90;;;8.60;99.90;;;;;;5040050;28;20467;-75
2023/10/25 05:46:00;;;;;;;4.67;2.90;;;8.60;99.90;;;;;;5054844;28;20472;-75
2023/10/25 05:48:48;;;;;;;4.10;3.37;;;8.60;99.90;;;;;;5044100;28;20464;-75
2023/10/25 05:51:34;;;;;;;4.20;3.43;;;8.70;99.90;;;;;;5040938;28;20443;-75
2023/10/25 05:54:20;;;;;;;4.43;3.57;;;8.70;99.90;;;;;;5051577;28;20445;-75
2023/10/25 05:57:07;;;;;;;11.00;3.90;;;8.70;99.90;;;;;;5056584;28;20426;-75
2023/10/25 05:59:53;;;;;;;3.57;3.00;;;8.70;99.90;;;;;;5058600;28;20822;-75
2023/10/25 06:02:39;;;;;;;6.50;3.17;;;8.70;99.90;;;;;;5054227;28;20454;-75
2023/10/25 06:05:27;;;;;;;4.30;3.50;;;8.60;99.90;;;;;;5054984;28;21101;-75
2023/10/25 06:08:13;;;;;;;7.23;4.60;;;8.60;99.90;;;;;;5051222;28;20531;-75
2023/10/25 06:10:59;;;;;;;8.30;4.50;;;8.60;99.90;;;;;;5046624;28;20452;-75
2023/10/25 06:13:45;;;;;;;6.50;5.27;;;8.50;99.90;;;;;;5045264;28;20520;-74
2023/10/25 06:16:31;;;;;;;20.70;5.97;;;8.60;99.90;;;;;;5051347;28;20433;-75
2023/10/25 06:19:17;;;;;;;9.10;5.40;;;8.70;99.90;;;;;;5058890;28;20460;-75
2023/10/25 06:22:04;;;;;;;7.30;4.83;;;8.70;99.90;;;;;;5046993;28;20961;-75
2023/10/25 06:24:50;;;;;;;23.53;6.10;;;8.70;99.90;;;;;;5052380;28;20485;-75
2023/10/25 06:27:36;;;;;;;6.30;5.03;;;8.70;99.90;;;;;;5045163;28;20445;-75
2023/10/25 06:30:21;;;;;;;24.87;6.50;;;8.70;99.90;;;;;;5045704;28;20445;-74
2023/10/25 06:33:07;;;;;;;14.60;5.93;;;8.70;99.90;;;;;;5049509;28;20456;-75
2023/10/25 06:35:54;;;;;;;69.00;14.40;;;8.70;99.90;;;;;;5053723;28;20545;-75
2023/10/25 06:38:41;;;;;;;19.73;14.73;;;8.70;99.90;;;;;;5047726;28;20555;-75
2023/10/25 06:41:27;;;;;;;26.60;8.60;;;8.70;99.90;;;;;;5045652;28;20468;-75
2023/10/25 06:44:14;;;;;;;38.53;6.80;;;8.60;99.90;;;;;;5051538;28;20452;-75
2023/10/25 06:47:00;;;;;;;20.20;6.67;;;8.50;99.90;;;;;;5050408;28;20468;-75
2023/10/25 06:49:46;;;;;;;4.80;4.40;;;8.50;99.90;;;;;;5050723;28;20475;-75
2023/10/25 06:52:32;;;;;;;11.63;5.10;;;8.50;99.90;;;;;;5047348;28;21015;-75
2023/10/25 06:55:20;;;;;;;6.80;4.73;;;8.60;99.90;;;;;;5061020;28;20452;-75
2023/10/25 06:58:06;;;;;;;5.57;5.07;;;8.60;99.90;;;;;;5053999;28;20480;-75
2023/10/25 07:00:55;;;;;;;6.60;4.90;;;8.60;99.90;;;;;;5043427;28;20452;-75
2023/10/25 07:03:46;;;;;;;4.80;4.30;;;8.70;99.90;;;;;;5052710;28;20420;-75
2023/10/25 07:06:31;;;;;;;5.13;4.27;;;8.70;99.90;;;;;;5054111;28;20467;-75
2023/10/25 07:09:18;;;;;;;7.20;5.00;;;8.60;99.90;;;;;;5063328;28;21038;-75
2023/10/25 07:12:05;;;;;;;6.53;5.33;;;8.70;99.90;;;;;;5057484;28;20427;-75
2023/10/25 07:14:51;;;;;;;6.90;4.67;;;8.80;99.90;;;;;;5057901;28;20486;-75
2023/10/25 07:17:37;;;;;;;5.63;3.70;;;9.00;99.90;;;;;;5063515;28;20428;-75
2023/10/25 07:20:23;;;;;;;6.43;4.27;;;9.10;99.90;;;;;;5057099;28;20487;-74
2023/10/25 07:23:09;;;;;;;10.23;4.30;;;9.20;99.90;;;;;;5058434;28;20545;-75
2023/10/25 07:25:55;;;;;;;4.47;3.80;;;9.30;99.90;;;;;;5048605;28;20996;-75
2023/10/25 07:28:42;;;;;;;4.23;3.83;;;9.40;99.90;;;;;;5058571;28;20600;-75
2023/10/25 07:31:27;;;;;;;4.80;3.70;;;9.50;99.90;;;;;;5050178;28;20656;-75
2023/10/25 07:34:13;;;;;;;4.97;4.37;;;9.50;99.90;;;;;;5040524;28;20449;-75
2023/10/25 07:36:59;;;;;;;10.77;4.90;;;9.60;99.90;;;;;;5054762;28;20440;-75
2023/10/25 07:39:44;;;;;;;4.60;4.00;;;9.60;99.90;;;;;;5043249;28;20470;-75
2023/10/25 07:42:30;;;;;;;6.33;4.43;;;9.70;99.90;;;;;;5060690;28;21013;-75
2023/10/25 07:45:17;;;;;;;6.93;4.80;;;9.80;99.90;;;;;;5055938;28;20434;-75
2023/10/25 07:48:04;;;;;;;6.20;5.07;;;9.90;99.90;;;;;;5046093;28;20472;-75
2023/10/25 07:50:50;;;;;;;7.20;6.30;;;10.00;99.90;;;;;;5054209;28;20558;-75
2023/10/25 07:53:35;;;;;;;7.53;5.80;;;10.10;99.90;;;;;;5064736;28;20547;-75
2023/10/25 07:56:21;;;;;;;6.40;5.70;;;10.30;99.90;;;;;;5053534;28;20442;-75
2023/10/25 07:59:08;;;;;;;9.47;6.00;;;10.30;99.90;;;;;;5045340;28;20490;-75
2023/10/25 08:01:57;;;;;;;16.83;10.67;;;10.40;99.90;;;;;;5052945;28;20432;-75
2023/10/25 08:04:43;;;;;;;13.40;9.20;;;10.50;99.90;;;;;;5053189;28;20603;-75
2023/10/25 08:07:30;;;;;;;11.13;7.87;;;10.60;99.90;;;;;;5064390;28;20702;-75
2023/10/25 08:10:16;;;;;;;10.90;7.20;;;10.60;99.90;;;;;;5062771;28;20445;-74
2023/10/25 08:13:02;;;;;;;13.40;6.93;;;10.80;99.90;;;;;;5048506;28;20562;-75
2023/10/25 08:15:56;;;;;;;7.60;6.80;;;10.90;99.90;;;;;;5051027;28;20441;-75
2023/10/25 08:18:44;;;;;;;7.93;7.10;;;10.90;99.90;;;;;;5048048;28;20844;-75
2023/10/25 08:21:29;;;;;;;9.53;7.87;;;10.90;99.90;;;;;;5055014;28;20503;-75
2023/10/25 08:24:15;;;;;;;14.10;7.33;;;10.90;99.90;;;;;;5040036;28;20468;-74
2023/10/25 08:27:00;;;;;;;9.50;7.00;;;11.00;99.90;;;;;;5052740;28;20536;-75
2023/10/25 08:29:46;;;;;;;8.03;6.77;;;11.10;99.90;;;;;;5069805;28;20453;-75
2023/10/25 08:32:32;;;;;;;9.03;6.33;;;11.20;99.90;;;;;;5068944;28;20983;-75
2023/10/25 08:35:20;;;;;;;7.37;5.93;;;11.30;99.90;;;;;;5058449;28;20527;-75
2023/10/25 08:38:05;;;;;;;9.70;6.30;;;11.50;99.90;;;;;;5065574;28;20449;-74
2023/10/25 08:40:51;;;;;;;6.13;5.40;;;11.60;99.90;;;;;;5043131;28;20446;-75
2023/10/25 08:43:38;;;;;;;8.87;5.70;;;11.70;99.90;;;;;;5049328;28;20447;-75
2023/10/25 08:46:25;;;;;;;7.53;5.30;;;11.80;99.90;;;;;;5056643;28;20603;-75
2023/10/25 08:49:11;;;;;;;7.23;6.30;;;12.00;99.90;;;;;;5052123;28;20474;-75
2023/10/25 08:51:58;;;;;;;5.67;4.80;;;12.10;99.90;;;;;;5060648;28;20425;-75
2023/10/25 08:54:44;;;;;;;5.50;4.33;;;12.20;99.90;;;;;;5054128;28;20427;-75
2023/10/25 08:57:31;;;;;;;5.60;4.00;;;12.30;99.90;;;;;;5053850;28;21152;-75
2023/10/25 09:00:17;;;;;;;4.70;3.87;;;12.30;99.90;;;;;;5065093;28;20901;-75
2023/10/25 09:03:03;;;;;;;6.47;3.97;;;12.40;99.90;;;;;;5063569;28;20995;-75
2023/10/25 09:05:48;;;;;;;8.30;3.70;;;12.30;99.90;;;;;;5069990;28;20991;-75
2023/10/25 09:08:37;;;;;;;3.93;3.30;;;12.40;99.90;;;;;;5070884;28;20453;-75
2023/10/25 09:11:23;;;;;;;4.33;3.53;;;12.40;99.90;;;;;;5061758;28;20434;-75
2023/10/25 09:14:10;;;;;;;5.00;3.17;;;12.40;99.90;;;;;;5060990;28;20462;-75
2023/10/25 09:16:56;;;;;;;4.70;3.20;;;12.50;99.90;;;;;;5057616;28;20439;-75
2023/10/25 09:19:44;;;;;;;3.73;3.00;;;12.60;99.90;;;;;;5058633;28;20586;-75
2023/10/25 09:22:30;;;;;;;4.63;2.50;;;12.70;99.90;;;;;;5050451;28;20463;-75
2023/10/25 09:25:17;;;;;;;3.80;3.03;;;12.70;99.90;;;;;;5052557;28;20413;-75
2023/10/25 09:28:03;;;;;;;2.53;2.33;;;12.70;99.90;;;;;;5057174;28;20533;-75
2023/10/25 09:30:49;;;;;;;3.60;2.80;;;12.70;99.90;;;;;;5054068;28;20421;-75
2023/10/25 09:33:34;;;;;;;4.43;3.27;;;12.60;99.90;;;;;;5048147;28;20571;-76
2023/10/25 09:36:21;;;;;;;4.00;2.80;;;12.60;99.90;;;;;;5052873;28;20588;-75
2023/10/25 09:39:06;;;;;;;5.90;3.20;;;12.60;99.90;;;;;;5048615;28;20231;-75
2023/10/25 09:41:54;;;;;;;3.73;2.87;;;12.60;99.90;;;;;;5047893;28;20425;-75
2023/10/25 09:44:47;;;;;;;3.90;3.43;;;12.50;99.90;;;;;;5041853;28;20442;-75
2023/10/25 09:47:38;;;;;;;4.27;3.17;;;12.50;99.90;;;;;;5050516;28;20556;-75
2023/10/25 09:50:32;;;;;;;5.73;3.50;;;12.50;99.90;;;;;;5040597;28;20454;-75
2023/10/25 09:53:21;;;;;;;5.40;3.27;;;12.50;99.90;;;;;;5041806;28;20499;-75
2023/10/25 09:56:09;;;;;;;4.77;3.50;;;12.50;99.90;;;;;;5052656;28;20459;-76
2023/10/25 09:58:57;;;;;;;4.10;2.73;;;12.50;99.90;;;;;;5069287;28;20464;-76
2023/10/25 10:01:43;;;;;;;4.23;3.53;;;12.50;99.90;;;;;;5069023;28;20453;-76
2023/10/25 10:04:39;;;;;;;2.47;2.23;;;12.50;99.90;;;;;;5057029;28;20419;-77
2023/10/25 10:07:35;;;;;;;4.60;3.30;;;12.40;99.90;;;;;;5053798;28;20991;-76
2023/10/25 10:10:26;;;;;;;3.67;3.13;;;12.50;99.90;;;;;;5054538;28;20443;-76
2023/10/25 10:13:16;;;;;;;5.33;3.67;;;12.50;99.90;;;;;;5051486;28;21016;-76
2023/10/25 10:16:05;;;;;;;4.77;3.37;;;12.50;99.90;;;;;;5043877;28;20433;-75
2023/10/25 10:18:52;;;;;;;4.70;3.70;;;12.50;99.90;;;;;;5054440;22;20854;-69
2023/10/25 10:22:03;;;;;;;6.60;3.63;;;12.50;99.90;;;;;;5036182;28;20454;-69
2023/10/25 10:24:52;;;;;;;3.53;3.20;;;12.50;99.90;;;;;;5045291;28;20790;-69
2023/10/25 10:28:05;;;;;;;4.63;2.90;;;12.50;99.90;;;;;;5049575;28;20617;-70
2023/10/25 10:30:54;;;;;;;5.50;3.03;;;12.40;99.90;;;;;;4985432;28;20468;-69
2023/10/25 10:33:45;;;;;;;6.60;3.13;;;12.30;99.90;;;;;;5024539;28;20427;-70
2023/10/25 10:36:31;;;;;;;4.87;2.70;;;12.30;99.90;;;;;;5022880;28;20435;-69
2023/10/25 10:39:17;;;;;;;5.40;2.70;;;12.40;99.90;;;;;;5030084;28;20813;-70
2023/10/25 10:42:03;;;;;;;4.27;3.60;;;12.40;99.90;;;;;;5027557;28;20423;-71
2023/10/25 10:44:49;;;;;;;5.23;2.47;;;12.50;99.90;;;;;;5030955;28;20480;-69
2023/10/25 10:47:41;;;;;;;3.90;3.10;;;12.50;99.90;;;;;;5031106;28;20476;-70
2023/10/25 10:50:28;;;;;;;9.30;3.13;;;12.50;99.90;;;;;;5030379;28;20459;-70
2023/10/25 10:53:13;;;;;;;4.97;3.00;;;12.50;99.90;;;;;;5029239;28;20432;-69
2023/10/25 10:55:59;;;;;;;3.80;3.10;;;12.50;99.90;;;;;;5030236;28;20572;-70
2023/10/25 10:58:45;;;;;;;3.87;3.20;;;12.60;99.90;;;;;;5024490;28;20663;-70
2023/10/25 11:01:31;;;;;;;3.90;2.80;;;12.60;99.90;;;;;;5030482;28;20503;-70
2023/10/25 11:04:17;;;;;;;4.70;3.50;;;12.60;99.90;;;;;;5021279;28;20440;-70
2023/10/25 11:07:05;;;;;;;6.60;3.00;;;12.70;99.90;;;;;;5029307;28;20487;-70
2023/10/25 11:09:51;;;;;;;5.43;3.20;;;12.70;99.90;;;;;;5030801;28;20611;-70
2023/10/25 11:12:37;;;;;;;4.13;2.87;;;12.70;99.90;;;;;;5023373;28;20981;-69
2023/10/25 11:15:25;;;;;;;4.27;2.87;;;12.60;99.90;;;;;;5029959;28;20444;-70
2023/10/25 11:18:12;;;;;;;3.70;3.00;;;12.70;99.90;;;;;;5030179;28;20559;-70
2023/10/25 11:20:57;;;;;;;3.50;2.70;;;12.70;99.90;;;;;;5030205;28;20435;-70
2023/10/25 11:23:44;;;;;;;3.40;2.57;;;12.70;99.90;;;;;;5030442;28;20427;-71
2023/10/25 11:26:30;;;;;;;3.00;2.20;;;12.70;99.90;;;;;;5030350;28;20426;-70
2023/10/25 11:29:16;;;;;;;4.33;2.70;;;12.60;99.90;;;;;;5029704;28;20998;-69
2023/10/25 11:32:06;;;;;;;6.10;2.57;;;12.60;99.90;;;;;;5030187;28;20559;-71
2023/10/25 11:34:56;;;;;;;4.13;2.50;;;12.70;99.90;;;;;;5025170;28;20478;-70
2023/10/25 11:37:42;;;;;;;2.77;2.10;;;12.70;99.90;;;;;;5030500;28;20524;-71
2023/10/25 11:40:41;;;;;;;2.70;1.97;;;12.60;99.90;;;;;;5029796;28;20563;-70
2023/10/25 11:43:26;;;;;;;3.37;2.50;;;12.60;99.90;;;;;;5030818;28;20464;-69
2023/10/25 11:46:14;;;;;;;3.30;2.10;;;12.60;99.90;;;;;;5019361;28;21926;-70
2023/10/25 11:49:00;;;;;;;4.93;2.80;;;12.60;99.90;;;;;;5021447;28;20431;-70
2023/10/25 11:51:47;;;;;;;2.90;2.07;;;12.60;99.90;;;;;;5029613;28;20431;-70
2023/10/25 11:54:33;;;;;;;5.90;2.40;;;12.70;99.90;;;;;;5031198;28;20951;-69
2023/10/25 11:57:20;;;;;;;4.53;3.20;;;12.70;99.90;;;;;;5028453;28;20423;-70
2023/10/25 12:00:08;;;;;;;3.00;2.70;;;12.70;99.90;;;;;;5029314;28;20452;-71
2023/10/25 12:02:54;;;;;;;4.73;2.50;;;12.60;99.90;;;;;;5029316;28;20439;-70
2023/10/25 12:05:41;;;;;;;6.10;2.53;;;12.60;99.90;;;;;;5015378;28;20402;-71
2023/10/25 12:08:27;;;;;;;3.97;2.93;;;12.60;99.90;;;;;;5031379;28;20555;-70
2023/10/25 12:11:12;;;;;;;4.73;2.70;;;12.60;99.90;;;;;;5029316;28;20869;-70
2023/10/25 12:13:59;;;;;;;3.40;2.30;;;12.60;99.90;;;;;;5029046;28;20475;-70
2023/10/25 12:16:45;;;;;;;2.77;2.37;;;12.60;99.90;;;;;;5024733;28;20494;-70
2023/10/25 12:19:31;;;;;;;3.03;2.53;;;12.60;99.90;;;;;;5028083;28;20476;-70
2023/10/25 12:22:16;;;;;;;8.90;2.93;;;12.60;99.90;;;;;;5024352;28;20426;-71
2023/10/25 12:25:02;;;;;;;3.27;2.90;;;12.60;99.90;;;;;;5027665;28;20447;-70
2023/10/25 12:27:48;;;;;;;6.13;2.57;;;12.60;99.90;;;;;;5029811;28;20550;-70
2023/10/25 12:30:35;;;;;;;6.50;3.00;;;12.60;99.90;;;;;;5027876;28;20443;-70
2023/10/25 12:33:22;;;;;;;4.10;3.20;;;12.60;99.90;;;;;;5031464;28;20467;-70
2023/10/25 12:36:08;;;;;;;6.30;3.50;;;12.60;99.90;;;;;;5027075;28;20983;-70
2023/10/25 12:38:53;;;;;;;4.33;3.20;;;12.60;99.90;;;;;;5020509;28;20468;-70
2023/10/25 12:41:39;;;;;;;5.10;3.87;;;12.70;99.90;;;;;;5023525;28;20993;-71
2023/10/25 12:44:25;;;;;;;7.10;4.07;;;12.70;99.90;;;;;;5025462;28;20535;-70
2023/10/25 12:47:12;;;;;;;5.20;3.70;;;12.70;99.90;;;;;;5024616;28;20631;-70
2023/10/25 12:49:57;;;;;;;5.70;4.33;;;12.70;99.90;;;;;;5022542;28;21009;-70
2023/10/25 12:52:43;;;;;;;4.07;3.67;;;12.80;99.90;;;;;;5027593;28;20960;-70
2023/10/25 12:55:29;;;;;;;4.33;3.20;;;12.60;99.90;;;;;;5022250;28;20466;-71
2023/10/25 12:58:15;;;;;;;4.77;3.23;;;12.70;99.90;;;;;;5025364;28;20498;-70
2023/10/25 13:01:00;;;;;;;5.20;3.40;;;12.70;99.90;;;;;;5026424;28;20470;-70
2023/10/25 13:03:48;;;;;;;4.60;3.73;;;12.70;99.90;;;;;;5027230;28;20451;-71
2023/10/25 13:06:34;;;;;;;4.20;3.50;;;12.70;99.90;;;;;;5023574;28;20445;-71
2023/10/25 13:09:20;;;;;;;7.93;4.23;;;12.60;99.90;;;;;;5026052;28;20464;-70
2023/10/25 13:12:08;;;;;;;4.50;3.60;;;12.70;99.90;;;;;;5025546;28;20577;-69
2023/10/25 13:14:53;;;;;;;7.43;4.10;;;12.70;99.90;;;;;;5024539;28;20453;-71
2023/10/25 13:17:39;;;;;;;5.53;3.87;;;12.70;99.90;;;;;;5024567;28;20464;-70
2023/10/25 13:20:26;;;;;;;4.17;3.43;;;12.70;99.90;;;;;;5024947;28;20982;-70
2023/10/25 13:23:12;;;;;;;5.13;3.57;;;12.70;99.90;;;;;;5025033;28;20619;-70
2023/10/25 13:25:57;;;;;;;6.23;3.93;;;12.70;99.90;;;;;;5024684;28;20606;-69
2023/10/25 13:28:44;;;;;;;4.93;3.23;;;12.80;99.90;;;;;;5025726;28;20451;-70
2023/10/25 13:31:29;;;;;;;4.10;2.50;;;12.80;99.90;;;;;;5026350;28;20515;-69
2023/10/25 13:34:15;;;;;;;4.07;2.90;;;12.80;99.90;;;;;;5030609;28;20864;-70
2023/10/25 13:37:03;;;;;;;7.20;3.73;;;12.80;99.90;;;;;;5025382;28;20448;-70
2023/10/25 13:39:49;;;;;;;4.60;2.83;;;12.90;99.90;;;;;;5028984;28;20468;-70
2023/10/25 13:42:34;;;;;;;6.03;2.87;;;12.80;99.90;;;;;;5029025;28;21082;-70
2023/10/25 13:45:20;;;;;;;4.97;3.17;;;12.90;99.90;;;;;;5028292;28;20501;-71
2023/10/25 13:48:06;;;;;;;3.80;3.00;;;13.00;99.90;;;;;;5026747;28;20860;-70
2023/10/25 13:50:51;;;;;;;2.47;1.57;;;13.00;99.90;;;;;;5021622;28;20546;-70
2023/10/25 13:53:39;;;;;;;2.57;1.80;;;13.00;99.90;;;;;;5027717;28;20798;-69
2023/10/25 13:56:24;;;;;;;3.37;1.90;;;13.10;99.90;;;;;;5026696;28;20546;-69
2023/10/25 13:59:10;;;;;;;2.17;1.40;;;13.10;99.90;;;;;;5024039;28;20463;-70
2023/10/25 14:01:55;;;;;;;3.57;1.80;;;13.20;99.90;;;;;;5024113;28;20455;-69
2023/10/25 14:04:41;;;;;;;2.80;1.60;;;13.20;99.90;;;;;;5024215;28;20443;-70
2023/10/25 14:07:27;;;;;;;5.33;1.60;;;13.20;99.90;;;;;;5023289;28;20533;-70
2023/10/25 14:10:14;;;;;;;1.60;1.17;;;13.30;99.90;;;;;;5022824;28;20491;-70
2023/10/25 14:12:59;;;;;;;2.40;1.80;;;13.20;99.90;;;;;;5023812;28;20448;-71
2023/10/25 14:15:45;;;;;;;2.30;1.30;;;13.30;99.90;;;;;;5026334;28;20962;-70
2023/10/25 14:18:30;;;;;;;2.30;1.40;;;13.40;99.90;;;;;;5019866;28;20468;-70
2023/10/25 14:21:16;;;;;;;3.17;1.37;;;13.40;99.90;;;;;;5024604;28;20451;-71
2023/10/25 14:24:03;;;;;;;2.70;1.50;;;13.40;99.90;;;;;;5020907;28;20829;-70
2023/10/25 14:26:51;;;;;;;3.73;1.50;;;13.40;99.90;;;;;;5022483;28;20455;-70